createdAt,value
2023-05-21T00:02:23.865Z,38.45
2023-05-21T00:05:15.224Z,37.38
2023-05-21T00:08:06.734Z,38.72
2023-05-21T00:10:56.032Z,39.03
2023-05-21T00:13:45.503Z,39.25
2023-05-21T00:16:34.899Z,39.15
2023-05-21T00:19:24.548Z,40.13
2023-05-21T00:22:14.357Z,38.95
2023-05-21T00:25:05.294Z,42.53
2023-05-21T00:27:55.707Z,42.15
2023-05-21T00:30:45.191Z,40.95
2023-05-21T00:33:34.523Z,41.13
2023-05-21T00:36:25.369Z,40.03
2023-05-21T00:39:14.937Z,39.40
2023-05-21T00:42:06.215Z,41.15
2023-05-21T00:44:55.662Z,42.25
2023-05-21T00:47:48.598Z,39.53
2023-05-21T00:50:39.810Z,38.05
2023-05-21T00:53:30.330Z,36.75
2023-05-21T00:56:20.134Z,38.10
2023-05-21T00:59:11.000Z,38.85
2023-05-21T01:02:04.354Z,40.05
2023-05-21T01:04:56.602Z,37.20
2023-05-21T01:07:46.777Z,36.93
2023-05-21T01:10:36.164Z,37.47
2023-05-21T01:13:26.943Z,34.70
2023-05-21T01:16:17.976Z,31.00
2023-05-21T01:19:11.202Z,33.38
2023-05-21T01:24:57.086Z,32.40
2023-05-21T01:27:46.657Z,30.20
2023-05-21T01:30:36.824Z,25.50
2023-05-21T01:33:34.904Z,25.65
2023-05-21T01:36:31.221Z,24.10
2023-05-21T01:39:25.014Z,24.10
2023-05-21T01:42:18.038Z,22.33
2023-05-21T01:47:59.398Z,20.05
2023-05-21T01:50:50.071Z,19.02
2023-05-21T01:53:40.804Z,19.48
2023-05-21T01:56:33.981Z,19.17
2023-05-21T01:59:25.201Z,18.63
2023-05-21T02:02:14.580Z,16.92
2023-05-21T02:05:04.152Z,17.38
2023-05-21T02:07:53.909Z,17.33
2023-05-21T02:10:43.276Z,15.98
2023-05-21T02:13:32.628Z,16.90
2023-05-21T02:16:23.378Z,15.95
2023-05-21T02:19:12.815Z,16.23
2023-05-21T02:22:02.800Z,16.08
2023-05-21T02:24:52.116Z,15.77
2023-05-21T02:27:42.569Z,16.27
2023-05-21T02:30:31.986Z,15.50
2023-05-21T02:33:22.777Z,15.40
2023-05-21T02:36:15.522Z,16.05
2023-05-21T02:39:05.063Z,15.75
2023-05-21T02:41:54.520Z,15.57
2023-05-21T02:44:43.825Z,15.63
2023-05-21T02:47:33.224Z,15.35
2023-05-21T02:50:24.048Z,16.17
2023-05-21T02:53:19.994Z,15.80
2023-05-21T02:56:09.521Z,15.35
2023-05-21T02:58:58.790Z,15.23
2023-05-21T03:01:48.140Z,15.55
2023-05-21T03:04:39.231Z,16.52
2023-05-21T03:07:32.546Z,16.35
2023-05-21T03:10:21.865Z,15.95
2023-05-21T03:13:11.253Z,17.13
2023-05-21T03:16:00.996Z,15.85
2023-05-21T03:18:50.295Z,17.10
2023-05-21T03:21:40.159Z,16.42
2023-05-21T03:24:31.900Z,16.25
2023-05-21T03:27:23.834Z,16.65
2023-05-21T03:30:14.444Z,16.88
2023-05-21T03:33:20.837Z,16.08
2023-05-21T03:36:10.250Z,15.77
2023-05-21T03:39:01.002Z,15.20
2023-05-21T03:41:51.977Z,14.40
2023-05-21T03:44:52.815Z,13.27
2023-05-21T03:48:02.375Z,13.10
2023-05-21T03:50:53.092Z,13.55
2023-05-21T03:53:42.485Z,12.88
2023-05-21T03:56:31.852Z,12.88
2023-05-21T03:59:22.601Z,12.90
2023-05-21T04:02:12.129Z,12.32
2023-05-21T04:05:01.507Z,12.15
2023-05-21T04:07:51.248Z,11.57
2023-05-21T04:10:40.584Z,11.65
2023-05-21T04:13:29.812Z,11.50
2023-05-21T04:16:20.656Z,11.65
2023-05-21T04:19:12.762Z,11.23
2023-05-21T04:22:03.230Z,11.60
2023-05-21T04:24:53.626Z,10.85
2023-05-21T04:27:48.690Z,10.98
2023-05-21T04:30:38.545Z,11.07
2023-05-21T04:33:30.619Z,10.85
2023-05-21T04:36:20.308Z,11.10
2023-05-21T04:39:09.716Z,11.25
2023-05-21T04:41:59.204Z,10.57
2023-05-21T04:44:52.233Z,10.68
2023-05-21T04:47:41.749Z,11.43
2023-05-21T04:50:33.822Z,11.73
2023-05-21T04:53:24.026Z,10.80
2023-05-21T04:56:13.585Z,11.30
2023-05-21T04:59:05.622Z,10.93
2023-05-21T05:01:56.579Z,10.45
2023-05-21T05:04:46.641Z,10.55
2023-05-21T05:07:37.355Z,10.93
2023-05-21T05:10:26.724Z,10.88
2023-05-21T05:13:17.641Z,11.35
2023-05-21T05:16:08.092Z,11.43
2023-05-21T05:18:57.586Z,11.57
2023-05-21T05:21:46.974Z,11.05
2023-05-21T05:24:37.878Z,11.38
2023-05-21T05:27:27.272Z,11.75
2023-05-21T05:30:16.734Z,11.95
2023-05-21T05:33:06.315Z,11.95
2023-05-21T05:35:55.827Z,11.00
2023-05-21T05:38:45.142Z,11.57
2023-05-21T05:41:35.966Z,11.57
2023-05-21T05:44:25.300Z,14.57
2023-05-21T05:47:14.792Z,22.08
2023-05-21T05:50:04.285Z,25.08
2023-05-21T05:52:53.604Z,25.00
2023-05-21T05:55:43.542Z,24.73
2023-05-21T05:58:34.385Z,25.15
2023-05-21T06:01:33.376Z,23.88
2023-05-21T06:04:22.932Z,25.20
2023-05-21T06:07:12.540Z,25.60
2023-05-21T06:10:03.129Z,23.85
2023-05-21T06:12:52.559Z,20.00
2023-05-21T06:15:44.289Z,18.10
2023-05-21T06:18:33.802Z,17.27
2023-05-21T06:21:23.154Z,17.83
2023-05-21T06:24:12.695Z,18.20
2023-05-21T06:27:04.131Z,23.77
2023-05-21T06:29:53.931Z,23.67
2023-05-21T06:32:45.457Z,23.60
2023-05-21T06:35:37.591Z,25.80
2023-05-21T06:38:27.628Z,25.85
2023-05-21T06:41:17.373Z,28.40
2023-05-21T06:44:19.406Z,28.00
2023-05-21T06:47:34.219Z,28.73
2023-05-21T06:50:25.978Z,30.63
2023-05-21T06:53:16.742Z,30.67
2023-05-21T06:56:08.199Z,31.27
2023-05-21T06:59:05.379Z,33.38
2023-05-21T07:01:55.004Z,32.33
2023-05-21T07:04:44.456Z,33.35
2023-05-21T07:07:36.939Z,31.02
2023-05-21T07:10:26.295Z,32.75
2023-05-21T07:13:15.823Z,32.67
2023-05-21T07:16:05.779Z,34.60
2023-05-21T07:18:55.224Z,33.10
2023-05-21T07:21:44.564Z,32.42
2023-05-21T07:24:35.400Z,32.08
2023-05-21T07:27:26.076Z,32.80
2023-05-21T07:30:17.814Z,30.35
2023-05-21T07:33:07.522Z,30.70
2023-05-21T07:35:58.102Z,28.77
2023-05-21T07:38:47.549Z,28.75
2023-05-21T07:41:38.350Z,28.90
2023-05-21T07:44:32.253Z,27.88
2023-05-21T07:47:23.799Z,26.75
2023-05-21T07:50:15.515Z,25.88
2023-05-21T07:53:05.238Z,26.23
2023-05-21T07:55:55.113Z,26.67
2023-05-21T07:58:49.618Z,24.63
2023-05-21T08:01:39.062Z,23.50
2023-05-21T08:04:29.701Z,23.92
2023-05-21T08:07:20.020Z,23.08
2023-05-21T08:10:10.438Z,20.25
2023-05-21T08:12:59.958Z,20.83
2023-05-21T08:15:53.396Z,20.13
2023-05-21T08:18:44.049Z,19.95
2023-05-21T08:21:34.716Z,20.45
2023-05-21T08:24:24.727Z,20.58
2023-05-21T08:27:16.246Z,20.67
2023-05-21T08:30:07.572Z,21.98
2023-05-21T08:32:58.938Z,20.63
2023-05-21T08:35:49.868Z,21.27
2023-05-21T08:38:52.594Z,22.08
2023-05-21T08:41:52.031Z,20.73
2023-05-21T08:44:49.936Z,20.30
2023-05-21T08:47:42.300Z,19.05
2023-05-21T08:50:33.816Z,18.38
2023-05-21T08:53:29.241Z,19.15
2023-05-21T08:56:19.745Z,18.67
2023-05-21T08:59:15.358Z,18.73
2023-05-21T09:02:08.800Z,17.92
2023-05-21T09:05:03.661Z,16.88
2023-05-21T09:08:03.157Z,16.10
2023-05-21T09:11:06.674Z,15.23
2023-05-21T09:14:12.092Z,17.55
2023-05-21T09:17:16.068Z,18.70
2023-05-21T09:20:13.568Z,19.67
2023-05-21T09:23:16.907Z,19.27
2023-05-21T09:26:13.925Z,16.83
2023-05-21T09:29:03.454Z,18.55
2023-05-21T09:31:54.983Z,20.75
2023-05-21T09:34:44.793Z,20.15
2023-05-21T09:37:37.730Z,19.77
2023-05-21T09:40:28.673Z,17.45
2023-05-21T09:43:19.020Z,13.57
2023-05-21T09:46:08.509Z,12.68
2023-05-21T09:48:58.848Z,12.23
2023-05-21T09:51:48.455Z,12.02
2023-05-21T09:54:37.922Z,10.70
2023-05-21T09:57:29.205Z,9.57
2023-05-21T10:00:21.394Z,11.48
2023-05-21T10:03:15.036Z,12.57
2023-05-21T10:06:06.242Z,14.60
2023-05-21T10:08:59.971Z,13.55
2023-05-21T10:11:53.468Z,17.20
2023-05-21T10:14:48.184Z,15.77
2023-05-21T10:17:38.873Z,14.45
2023-05-21T10:20:28.613Z,14.30
2023-05-21T10:23:19.162Z,15.15
2023-05-21T10:26:10.015Z,14.85
2023-05-21T10:29:00.604Z,15.68
2023-05-21T10:31:53.873Z,15.63
2023-05-21T10:34:44.744Z,15.07
2023-05-21T10:37:36.681Z,12.32
2023-05-21T10:40:26.134Z,10.95
2023-05-21T10:43:47.512Z,13.02
2023-05-21T10:47:07.170Z,14.38
2023-05-21T10:50:17.898Z,15.27
2023-05-21T10:53:23.174Z,18.05
2023-05-21T10:56:22.793Z,16.60
2023-05-21T10:59:30.065Z,16.15
2023-05-21T11:02:22.238Z,17.10
2023-05-21T11:05:42.280Z,15.90
2023-05-21T11:08:36.329Z,15.13
2023-05-21T11:11:52.392Z,16.38
2023-05-21T11:14:43.680Z,17.35
2023-05-21T11:17:42.172Z,18.05
2023-05-21T11:20:40.082Z,17.55
2023-05-21T11:23:52.691Z,16.83
2023-05-21T11:27:07.670Z,16.85
2023-05-21T11:30:00.296Z,16.73
2023-05-21T11:33:21.107Z,16.70
2023-05-21T11:36:14.049Z,15.93
2023-05-21T11:39:15.676Z,16.27
2023-05-21T11:42:07.025Z,16.88
2023-05-21T11:45:01.649Z,17.67
2023-05-21T11:47:59.721Z,16.15
2023-05-21T11:50:50.886Z,15.10
2023-05-21T11:53:48.670Z,15.50
2023-05-21T11:56:42.044Z,15.32
2023-05-21T11:59:35.463Z,16.63
2023-05-21T12:02:30.572Z,16.85
2023-05-21T12:05:20.820Z,16.65
2023-05-21T12:08:11.616Z,15.55
2023-05-21T12:11:05.130Z,16.30
2023-05-21T12:13:57.092Z,15.88
2023-05-21T12:16:49.724Z,15.60
2023-05-21T12:19:39.781Z,18.55
2023-05-21T12:22:35.885Z,19.88
2023-05-21T12:25:27.244Z,19.80
2023-05-21T12:28:17.978Z,18.48
2023-05-21T12:31:07.443Z,17.48
2023-05-21T12:33:56.764Z,19.27
2023-05-21T12:36:48.397Z,18.25
2023-05-21T12:39:42.854Z,18.67
2023-05-21T12:42:35.272Z,17.25
2023-05-21T12:45:26.654Z,17.20
2023-05-21T12:48:16.692Z,18.00
2023-05-21T12:51:06.184Z,18.88
2023-05-21T12:54:15.168Z,18.02
2023-05-21T12:57:14.802Z,19.88
2023-05-21T13:00:10.424Z,19.48
2023-05-21T13:03:01.914Z,18.83
2023-05-21T13:06:01.244Z,19.27
2023-05-21T13:08:50.765Z,18.08
2023-05-21T13:11:40.063Z,19.10
2023-05-21T13:14:29.482Z,20.00
2023-05-21T13:17:20.483Z,20.35
2023-05-21T13:20:12.596Z,21.08
2023-05-21T13:23:04.648Z,21.77
2023-05-21T13:25:55.140Z,22.10
2023-05-21T13:28:45.723Z,23.58
2023-05-21T13:31:35.197Z,21.65
2023-05-21T13:34:25.865Z,20.40
2023-05-21T13:37:15.576Z,20.05
2023-05-21T13:40:06.492Z,19.92
2023-05-21T13:42:55.820Z,20.08
2023-05-21T13:45:45.199Z,19.98
2023-05-21T13:48:34.480Z,20.48
2023-05-21T13:51:38.037Z,19.50
2023-05-21T13:54:28.295Z,20.00
2023-05-21T13:57:17.636Z,18.17
2023-05-21T14:00:10.677Z,16.80
2023-05-21T14:03:00.256Z,16.33
2023-05-21T14:05:53.683Z,15.23
2023-05-21T14:08:44.523Z,15.90
2023-05-21T14:11:35.032Z,16.60
2023-05-21T14:14:25.196Z,17.50
2023-05-21T14:17:14.676Z,15.30
2023-05-21T14:20:04.443Z,14.90
2023-05-21T14:22:54.485Z,13.77
2023-05-21T14:25:45.444Z,12.73
2023-05-21T14:28:34.863Z,12.65
2023-05-21T14:31:25.207Z,12.98
2023-05-21T14:34:14.580Z,13.00
2023-05-21T14:37:03.909Z,12.68
2023-05-21T14:39:53.648Z,13.13
2023-05-21T14:45:37.254Z,11.52
2023-05-21T14:48:26.869Z,10.65
2023-05-21T14:51:16.569Z,10.80
2023-05-21T14:54:05.976Z,10.65
2023-05-21T14:56:57.828Z,11.20
2023-05-21T14:59:51.512Z,9.25
2023-05-21T15:02:43.250Z,9.60
2023-05-21T15:05:33.685Z,8.73
2023-05-21T15:08:23.086Z,8.95
2023-05-21T15:11:13.018Z,9.30
2023-05-21T15:14:02.376Z,9.25
2023-05-21T15:16:53.095Z,9.30
2023-05-21T15:19:42.869Z,9.07
2023-05-21T15:22:32.338Z,8.40
2023-05-21T15:25:21.834Z,8.50
2023-05-21T15:28:11.971Z,9.10
2023-05-21T15:31:01.451Z,9.35
2023-05-21T15:33:52.196Z,8.48
2023-05-21T15:36:41.818Z,9.55
2023-05-21T15:39:32.088Z,8.63
2023-05-21T15:42:21.971Z,8.32
2023-05-21T15:45:12.657Z,9.00
2023-05-21T15:48:02.119Z,8.30
2023-05-21T15:50:53.032Z,8.65
2023-05-21T15:53:42.363Z,8.63
2023-05-21T15:56:31.763Z,8.85
2023-05-21T15:59:21.308Z,9.52
2023-05-21T16:02:11.529Z,8.48
2023-05-21T16:05:00.878Z,8.93
2023-05-21T16:07:52.221Z,8.77
2023-05-21T16:10:41.542Z,8.38
2023-05-21T16:13:31.631Z,8.65
2023-05-21T16:16:23.122Z,8.52
2023-05-21T16:22:03.200Z,8.18
2023-05-21T16:24:56.502Z,8.32
2023-05-21T16:27:45.924Z,7.78
2023-05-21T16:30:35.224Z,7.82
2023-05-21T16:33:24.741Z,7.72
2023-05-21T16:36:15.408Z,7.60
2023-05-21T16:39:05.777Z,6.72
2023-05-21T16:41:59.744Z,7.50
2023-05-21T16:44:49.242Z,8.68
2023-05-21T16:47:38.529Z,7.80
2023-05-21T16:50:27.912Z,7.93
2023-05-21T16:53:17.269Z,7.43
2023-05-21T16:56:06.806Z,6.60
2023-05-21T16:58:57.428Z,6.82
2023-05-21T17:01:46.765Z,6.72
2023-05-21T17:04:36.290Z,5.97
2023-05-21T17:07:27.275Z,5.47
2023-05-21T17:10:17.041Z,5.57
2023-05-21T17:13:18.328Z,5.57
2023-05-21T17:16:12.006Z,6.03
2023-05-21T17:19:02.102Z,6.13
2023-05-21T17:21:57.119Z,7.32
2023-05-21T17:24:46.635Z,6.97
2023-05-21T17:27:35.983Z,7.25
2023-05-21T17:30:25.266Z,7.75
2023-05-21T17:33:16.352Z,7.63
2023-05-21T17:36:06.474Z,7.75
2023-05-21T17:38:56.039Z,6.97
2023-05-21T17:41:47.619Z,7.00
2023-05-21T17:44:37.032Z,6.95
2023-05-21T17:47:26.307Z,7.95
2023-05-21T17:50:17.372Z,7.10
2023-05-21T17:53:06.753Z,6.63
2023-05-21T17:55:56.153Z,7.20
2023-05-21T17:58:45.389Z,7.97
2023-05-21T18:01:35.004Z,6.95
2023-05-21T18:04:24.558Z,7.18
2023-05-21T18:07:16.171Z,7.03
2023-05-21T18:10:06.358Z,6.88
2023-05-21T18:12:55.859Z,6.70
2023-05-21T18:15:45.119Z,6.65
2023-05-21T18:18:34.441Z,8.13
2023-05-21T18:21:23.856Z,6.85
2023-05-21T18:24:14.726Z,6.30
2023-05-21T18:27:04.097Z,6.40
2023-05-21T18:29:53.396Z,6.10
2023-05-21T18:32:42.802Z,6.88
2023-05-21T18:35:32.297Z,5.97
2023-05-21T18:38:22.043Z,6.22
2023-05-21T18:41:13.202Z,7.72
2023-05-21T18:44:03.022Z,6.35
2023-05-21T18:46:53.453Z,6.10
2023-05-21T18:49:52.022Z,6.15
2023-05-21T18:52:41.493Z,6.07
2023-05-21T18:55:30.904Z,6.38
2023-05-21T18:58:21.800Z,6.30
2023-05-21T19:01:11.347Z,6.07
2023-05-21T19:04:00.766Z,6.70
2023-05-21T19:06:50.217Z,6.55
2023-05-21T19:09:39.571Z,6.35
2023-05-21T19:12:31.434Z,6.40
2023-05-21T19:15:22.282Z,6.47
2023-05-21T19:18:12.047Z,7.22
2023-05-21T19:21:01.642Z,6.53
2023-05-21T19:23:53.676Z,6.88
2023-05-21T19:26:43.735Z,6.32
2023-05-21T19:29:33.192Z,7.38
2023-05-21T19:32:24.954Z,6.50
2023-05-21T19:35:14.392Z,6.53
2023-05-21T19:38:05.336Z,5.80
2023-05-21T19:40:55.111Z,6.13
2023-05-21T19:43:44.546Z,6.45
2023-05-21T19:46:33.971Z,5.90
2023-05-21T19:49:24.609Z,5.47
2023-05-21T19:52:14.161Z,6.10
2023-05-21T19:55:06.362Z,6.05
2023-05-21T19:57:55.987Z,6.70
2023-05-21T20:00:47.408Z,6.05
2023-05-21T20:03:37.220Z,6.07
2023-05-21T20:06:28.016Z,5.82
2023-05-21T20:09:18.204Z,6.40
2023-05-21T20:12:08.834Z,5.93
2023-05-21T20:14:59.745Z,6.43
2023-05-21T20:17:51.180Z,6.53
2023-05-21T20:20:41.625Z,6.70
2023-05-21T20:23:32.706Z,5.68
2023-05-21T20:26:23.247Z,5.97
2023-05-21T20:29:12.748Z,6.43
2023-05-21T20:32:02.245Z,7.45
2023-05-21T20:35:02.814Z,8.90
2023-05-21T20:37:53.742Z,9.18
2023-05-21T20:40:45.623Z,9.75
2023-05-21T20:43:37.571Z,8.23
2023-05-21T20:46:28.277Z,7.78
2023-05-21T20:49:17.836Z,8.60
2023-05-21T20:52:07.955Z,8.70
2023-05-21T20:54:59.782Z,8.30
2023-05-21T20:57:51.294Z,9.23
2023-05-21T21:00:44.072Z,8.65
2023-05-21T21:03:35.180Z,9.45
2023-05-21T21:06:26.378Z,9.68
2023-05-21T21:09:15.671Z,10.10
2023-05-21T21:12:21.197Z,10.45
2023-05-21T21:15:15.558Z,10.63
2023-05-21T21:18:05.194Z,10.52
2023-05-21T21:20:54.998Z,11.35
2023-05-21T21:23:44.586Z,11.13
2023-05-21T21:26:33.958Z,11.55
2023-05-21T21:29:23.354Z,10.68
2023-05-21T21:32:14.507Z,12.13
2023-05-21T21:35:04.149Z,11.43
2023-05-21T21:37:53.509Z,11.18
2023-05-21T21:40:42.848Z,11.05
2023-05-21T21:43:34.686Z,10.68
2023-05-21T21:46:24.052Z,12.07
2023-05-21T21:49:16.659Z,11.20
2023-05-21T21:52:07.365Z,11.38
2023-05-21T21:54:56.859Z,11.10
2023-05-21T21:57:46.245Z,10.55
2023-05-21T22:00:35.875Z,10.73
2023-05-21T22:03:25.212Z,11.02
2023-05-21T22:06:21.200Z,10.98
2023-05-21T22:09:13.843Z,10.93
2023-05-21T22:12:07.810Z,10.82
2023-05-21T22:15:05.897Z,10.43
2023-05-21T22:17:55.866Z,9.55
2023-05-21T22:20:48.056Z,9.85
2023-05-21T22:23:39.365Z,9.83
2023-05-21T22:26:32.448Z,8.70
2023-05-21T22:29:24.690Z,8.25
2023-05-21T22:32:15.211Z,8.38
2023-05-21T22:35:09.370Z,8.02
2023-05-21T22:37:58.967Z,9.25
2023-05-21T22:40:49.832Z,9.05
2023-05-21T22:43:39.446Z,8.63
2023-05-21T22:46:28.817Z,8.20
2023-05-21T22:49:20.004Z,9.52
2023-05-21T22:52:09.760Z,9.13
2023-05-21T22:55:00.762Z,8.98
2023-05-21T22:57:51.576Z,8.75
2023-05-21T23:00:43.977Z,8.23
2023-05-21T23:03:33.334Z,9.05
2023-05-21T23:06:22.708Z,8.63
2023-05-21T23:09:13.074Z,8.38
2023-05-21T23:12:02.957Z,8.30
2023-05-21T23:14:53.845Z,7.82
2023-05-21T23:17:43.369Z,7.43
2023-05-21T23:20:33.790Z,7.60
2023-05-21T23:23:23.115Z,6.68
2023-05-21T23:26:12.395Z,6.43
2023-05-21T23:29:09.608Z,5.60
2023-05-21T23:32:01.321Z,5.32
2023-05-21T23:34:50.879Z,4.82
2023-05-21T23:37:40.244Z,5.03
2023-05-21T23:40:29.502Z,4.63
2023-05-21T23:43:18.820Z,4.93
2023-05-21T23:46:09.085Z,4.78
2023-05-21T23:48:59.908Z,4.78
2023-05-21T23:51:50.927Z,4.80
2023-05-21T23:54:40.277Z,5.15
2023-05-21T23:57:29.606Z,7.43
